Time;durP1;ratioP1;P1;durP2;ratioP2;P2;SDS_P1;SDS_P2;PMS_P1;PMS_P2;Temp;Humidity;BMP_temperature;BMP_pressure;BME280_temperature;BME280_humidity;BME280_pressure;Samples;Min_cycle;Max_cycle;Signal;HPM_P1;HPM_P2
2022/03/19 00:01:54;;;;;;;11.07;6.15;;;;;;;9.49;59.47;104310.69;6246363;22;20020;-61
2022/03/19 00:04:19;;;;;;;9.93;6.05;;;;;;;9.47;60.09;104304.41;6246396;22;20014;-62
2022/03/19 00:06:48;;;;;;;10.07;6.00;;;;;;;9.49;60.14;104308.06;6246287;22;20008;-61
2022/03/19 00:09:13;;;;;;;13.32;6.38;;;;;;;9.44;60.48;104304.19;6244810;23;20008;-62
2022/03/19 00:11:40;;;;;;;11.98;6.32;;;;;;;9.47;60.54;104301.75;6244426;23;20463;-62
2022/03/19 00:14:06;;;;;;;11.23;6.22;;;;;;;9.41;60.41;104300.41;6246292;22;20000;-62
2022/03/19 00:16:32;;;;;;;13.07;6.53;;;;;;;9.38;60.12;104305.44;6246362;22;20330;-61
2022/03/19 00:18:57;;;;;;;10.85;5.60;;;;;;;9.43;60.71;104298.81;6246510;22;20000;-62
2022/03/19 00:21:23;;;;;;;13.10;6.60;;;;;;;9.40;60.22;104296.84;6246164;22;20402;-62
2022/03/19 00:23:50;;;;;;;13.13;6.20;;;;;;;9.40;60.20;104296.84;6245459;22;20004;-61
2022/03/19 00:26:17;;;;;;;10.40;6.32;;;;;;;9.35;60.48;104292.06;6245586;22;20318;-62
2022/03/19 00:28:43;;;;;;;14.15;6.68;;;;;;;9.38;60.34;104300.16;6246089;22;20437;-61
2022/03/19 00:31:09;;;;;;;10.65;6.43;;;;;;;9.32;60.41;104300.66;6246255;22;20011;-61
2022/03/19 00:33:35;;;;;;;12.52;6.93;;;;;;;9.36;60.89;104304.44;6246165;22;20004;-61
2022/03/19 00:36:00;;;;;;;11.10;6.53;;;;;;;9.23;60.45;104284.19;6245908;22;20000;-61
2022/03/19 00:38:26;;;;;;;15.30;6.93;;;;;;;9.31;60.44;104295.28;6245976;22;20015;-62
2022/03/19 00:40:52;;;;;;;13.60;7.22;;;;;;;9.30;60.37;104293.47;6245810;22;20008;-61
2022/03/19 00:43:19;;;;;;;12.48;6.85;;;;;;;9.30;60.55;104293.47;6246101;22;20000;-62
2022/03/19 00:45:49;;;;;;;12.27;7.22;;;;;;;9.28;60.94;104294.25;6245752;22;20012;-61
2022/03/19 00:48:15;;;;;;;16.33;7.45;;;;;;;9.28;60.45;104294.25;6246378;22;20011;-63
2022/03/19 00:50:42;;;;;;;14.23;6.72;;;;;;;9.23;61.33;104290.38;6245886;23;20007;-62
2022/03/19 00:53:08;;;;;;;11.75;6.85;;;;;;;9.19;61.14;104297.97;6245846;22;20004;-62
2022/03/19 00:55:33;;;;;;;18.00;7.50;;;;;;;9.22;60.64;104299.09;6246007;22;20079;-62
2022/03/19 00:58:00;;;;;;;13.77;6.88;;;;;;;9.20;60.75;104290.13;6245960;22;20432;-62
2022/03/19 01:00:26;;;;;;;13.35;6.80;;;;;;;9.25;60.72;104280.84;6245871;22;20035;-62
2022/03/19 01:02:53;;;;;;;14.10;7.47;;;;;;;9.20;60.58;104290.13;6245973;22;20040;-61
2022/03/19 01:05:20;;;;;;;14.60;7.60;;;;;;;9.01;60.86;104277.34;6245765;22;20095;-62
2022/03/19 01:07:50;;;;;;;11.52;7.18;;;;;;;9.06;61.05;104287.34;6245993;22;20007;-61
2022/03/19 01:10:20;;;;;;;15.88;7.90;;;;;;;8.98;61.66;104300.88;6245708;22;20009;-62
2022/03/19 01:12:47;;;;;;;12.70;8.00;;;;;;;8.96;61.33;104286.66;6246895;22;20031;-62
2022/03/19 01:15:13;;;;;;;12.93;7.70;;;;;;;8.89;62.04;104286.09;6245931;22;20000;-62
2022/03/19 01:17:39;;;;;;;16.25;7.90;;;;;;;8.80;61.88;104281.06;6245708;22;20079;-61
2022/03/19 01:20:05;;;;;;;13.80;7.38;;;;;;;8.72;62.94;104291.06;6246209;22;20062;-61
2022/03/19 01:22:32;;;;;;;12.27;7.85;;;;;;;8.65;62.87;104277.31;6244070;23;20004;-61
2022/03/19 01:25:04;;;;;;;12.77;7.70;;;;;;;8.63;62.27;104279.84;6247897;22;20035;-62
2022/03/19 01:27:36;;;;;;;;;;;;;;;8.72;61.36;104279.59;6248434;22;20004;-61
2022/03/19 01:30:04;;;;;;;12.93;7.68;;;;;;;8.58;62.30;104270.69;6247822;22;19953;-62
2022/03/19 01:32:29;;;;;;;12.55;8.10;;;;;;;8.56;63.19;104274.00;6247659;22;20082;-62
2022/03/19 01:34:55;;;;;;;16.17;8.32;;;;;;;8.51;63.34;104277.19;6248139;22;20036;-62
2022/03/19 01:37:22;;;;;;;16.30;8.43;;;;;;;8.44;63.40;104272.31;6248133;22;20422;-61
2022/03/19 01:39:48;;;;;;;19.50;8.55;;;;;;;8.39;64.15;104264.84;6247786;22;20333;-61
2022/03/19 01:42:31;;;;;;;13.20;8.07;;;;;;;8.37;63.95;104272.63;6248021;22;20000;-61
2022/03/19 01:44:58;;;;;;;13.98;8.50;;;;;;;8.35;64.43;104278.53;6245675;23;20079;-61
2022/03/19 01:47:26;;;;;;;18.70;8.85;;;;;;;8.31;64.30;104274.78;6247496;22;20087;-62
2022/03/19 01:49:52;;;;;;;15.65;9.23;;;;;;;8.30;64.39;104272.94;6247644;22;20019;-61
2022/03/19 01:52:20;;;;;;;14.63;8.93;;;;;;;8.31;65.03;104271.22;6247662;22;20004;-62
2022/03/19 01:54:50;;;;;;;12.95;8.85;;;;;;;8.24;64.81;104267.22;6247656;22;20487;-62
2022/03/19 01:57:24;;;;;;;17.92;9.63;;;;;;;8.16;64.82;104257.81;6247929;22;20018;-61
2022/03/19 01:59:50;;;;;;;18.73;9.52;;;;;;;8.18;65.29;104257.16;6247895;22;20321;-62
2022/03/19 02:02:16;;;;;;;16.70;10.07;;;;;;;8.15;66.45;104262.16;6247609;22;20004;-62
2022/03/19 02:04:44;;;;;;;18.55;10.10;;;;;;;8.11;66.27;104256.56;6247924;22;20005;-61
2022/03/19 02:07:11;;;;;;;15.13;9.52;;;;;;;8.13;66.69;104254.94;6247913;22;20334;-61
2022/03/19 02:09:38;;;;;;;21.55;10.07;;;;;;;8.12;65.65;104255.75;6247594;22;20011;-61
2022/03/19 02:12:04;;;;;;;17.33;9.80;;;;;;;8.11;66.11;104256.56;6247477;22;20007;-62
2022/03/19 02:14:33;;;;;;;18.67;10.27;;;;;;;8.07;66.39;104257.13;6247281;22;20010;-62
2022/03/19 02:17:01;;;;;;;18.00;9.48;;;;;;;8.03;67.04;104250.69;6247403;22;20000;-61
2022/03/19 02:19:26;;;;;;;16.73;10.43;;;;;;;7.99;67.10;104252.19;6247502;22;20462;-62
2022/03/19 02:21:51;;;;;;;18.63;9.85;;;;;;;7.95;67.26;104244.84;6247405;22;20000;-61
2022/03/19 02:27:02;;;;;;;17.30;9.77;;;;;;;7.93;67.36;104235.94;6247248;23;20073;-62
2022/03/19 02:29:27;;;;;;;14.70;9.70;;;;;;;7.91;67.96;104232.25;6247454;22;20008;-61
2022/03/19 02:31:59;;;;;;;20.15;10.20;;;;;;;7.89;68.00;104230.31;6247141;22;20080;-62
2022/03/19 02:34:25;;;;;;;17.70;9.45;;;;;;;7.85;68.09;104225.63;6247215;22;20557;-61
2022/03/19 02:36:51;;;;;;;16.40;9.95;;;;;;;7.87;67.84;104224.91;6247498;22;20071;-61
2022/03/19 02:39:28;;;;;;;18.40;10.27;;;;;;;7.74;68.44;104217.78;6247227;22;20081;-62
2022/03/19 02:41:57;;;;;;;13.38;9.30;;;;;;;7.76;68.49;104217.94;6247259;22;20031;-62
2022/03/19 02:44:22;;;;;;;15.65;9.93;;;;;;;7.85;68.89;104221.25;6247467;22;20004;-61
2022/03/19 02:46:50;;;;;;;20.48;10.07;;;;;;;7.84;68.45;104214.16;6246847;22;20341;-61
2022/03/19 02:49:17;;;;;;;20.05;10.63;;;;;;;7.80;69.06;104214.75;6247129;22;20000;-61
2022/03/19 02:51:45;;;;;;;14.48;9.30;;;;;;;7.82;68.81;104210.50;6247052;22;20502;-61
2022/03/19 02:54:13;;;;;;;13.10;10.07;;;;;;;7.78;69.51;104216.31;6247036;22;20420;-61
2022/03/19 02:56:40;;;;;;;17.77;10.05;;;;;;;7.72;69.21;104213.22;6246916;22;20075;-62
2022/03/19 02:59:25;;;;;;;16.15;9.27;;;;;;;7.68;69.67;104209.44;6246963;22;20382;-61
2022/03/19 03:01:53;;;;;;;18.15;9.45;;;;;;;7.63;70.00;104209.91;6247067;22;20061;-61
2022/03/19 03:04:19;;;;;;;17.23;9.60;;;;;;;7.62;70.22;104213.31;6247068;22;20004;-61
2022/03/19 03:06:47;;;;;;;18.15;9.68;;;;;;;7.55;71.24;104216.28;6247003;22;20004;-61
2022/03/19 03:09:13;;;;;;;19.58;9.98;;;;;;;7.50;69.90;104219.47;6246903;22;20004;-61
2022/03/19 03:11:39;;;;;;;19.58;10.50;;;;;;;7.45;71.58;104212.94;6247082;22;20012;-61
2022/03/19 03:14:10;;;;;;;22.40;10.25;;;;;;;7.45;71.34;104215.59;6245368;23;20000;-61
2022/03/19 03:16:37;;;;;;;17.45;9.98;;;;;;;7.46;71.23;104217.41;6246955;22;20026;-61
2022/03/19 03:19:05;;;;;;;19.40;9.45;;;;;;;7.47;70.64;104210.44;6246567;22;20337;-61
2022/03/19 03:21:33;;;;;;;17.40;9.77;;;;;;;7.44;70.50;104213.72;6246385;22;20015;-61
2022/03/19 03:23:59;;;;;;;16.17;9.27;;;;;;;7.37;71.46;104211.44;6246635;22;20000;-62
2022/03/19 03:26:24;;;;;;;20.42;8.82;;;;;;;7.37;71.52;104206.16;6246971;22;20015;-61
2022/03/19 03:28:50;;;;;;;18.50;9.50;;;;;;;7.33;71.92;104209.38;6246779;22;20361;-62
2022/03/19 03:31:15;;;;;;;17.45;10.07;;;;;;;7.36;71.32;104206.94;6246943;22;20008;-61
2022/03/19 03:33:41;;;;;;;17.70;10.35;;;;;;;7.30;71.90;104214.38;6246598;23;20311;-61
2022/03/19 03:36:07;;;;;;;19.65;8.95;;;;;;;7.33;72.19;104216.34;6246591;22;20009;-62
2022/03/19 03:38:33;;;;;;;19.10;9.70;;;;;;;7.31;72.21;104213.56;6246532;22;20000;-62
2022/03/19 03:40:59;;;;;;;15.10;9.07;;;;;;;7.30;72.34;104214.38;6246551;22;20038;-62
2022/03/19 03:43:24;;;;;;;17.10;9.23;;;;;;;7.33;72.05;104213.72;6246694;22;20008;-61
2022/03/19 03:45:50;;;;;;;14.90;8.63;;;;;;;7.31;71.42;104202.13;6246040;22;20422;-61
2022/03/19 03:48:16;;;;;;;13.40;9.13;;;;;;;7.31;71.69;104204.75;6246826;22;20007;-61
2022/03/19 03:50:42;;;;;;;18.00;9.55;;;;;;;7.18;71.91;104198.53;6246360;22;20012;-61
2022/03/19 03:53:08;;;;;;;18.55;9.43;;;;;;;7.21;72.69;104209.31;6245006;23;20083;-61
2022/03/19 03:55:36;;;;;;;15.07;8.70;;;;;;;7.13;72.97;104197.28;6246690;22;20000;-61
2022/03/19 03:58:11;;;;;;;21.63;9.40;;;;;;;7.17;72.88;104199.34;6246761;22;20000;-62
2022/03/19 04:00:36;;;;;;;17.52;8.93;;;;;;;7.20;72.34;104204.84;6246653;22;20162;-61
2022/03/19 04:03:03;;;;;;;17.55;8.60;;;;;;;7.19;72.71;104202.09;6246774;22;20004;-61
2022/03/19 04:05:29;;;;;;;14.52;8.77;;;;;;;7.23;72.48;104196.25;6246477;22;20053;-61
2022/03/19 04:07:54;;;;;;;17.10;8.93;;;;;;;7.24;72.72;104199.03;6246562;22;20036;-62
2022/03/19 04:10:20;;;;;;;14.65;8.73;;;;;;;7.15;72.69;104198.31;6246306;22;20329;-61
2022/03/19 04:12:46;;;;;;;17.63;8.73;;;;;;;7.13;72.45;104193.72;6246335;22;20000;-61
2022/03/19 04:15:11;;;;;;;16.30;9.00;;;;;;;7.11;72.77;104187.41;6246462;22;20016;-61
2022/03/19 04:17:37;;;;;;;16.17;8.35;;;;;;;7.16;72.47;104196.59;6246573;22;20044;-61
2022/03/19 04:20:04;;;;;;;17.77;8.88;;;;;;;7.11;73.23;104203.19;6246370;22;20372;-62
2022/03/19 04:22:37;;;;;;;19.58;8.50;;;;;;;7.10;72.55;104199.66;6246067;22;20075;-61
2022/03/19 04:25:10;;;;;;;17.73;8.65;;;;;;;7.05;72.77;104192.19;6246364;22;20048;-61
2022/03/19 04:27:36;;;;;;;15.55;8.60;;;;;;;7.04;72.49;104188.66;6246218;22;20081;-62
2022/03/19 04:30:01;;;;;;;16.23;8.50;;;;;;;7.05;72.78;104190.50;6245978;22;20027;-61
2022/03/19 04:32:27;;;;;;;16.75;8.88;;;;;;;7.08;71.95;104188.09;6246105;22;20008;-61
2022/03/19 04:34:52;;;;;;;21.35;8.80;;;;;;;7.12;72.67;104191.91;6246228;22;20054;-61
2022/03/19 04:37:17;;;;;;;18.77;8.35;;;;;;;7.13;72.64;104191.09;6245987;22;20004;-62
2022/03/19 04:39:42;;;;;;;17.10;8.70;;;;;;;7.13;72.67;104184.13;6246084;22;20445;-61
2022/03/19 04:42:08;;;;;;;20.98;8.82;;;;;;;7.10;72.21;104186.50;6246033;22;20004;-62
2022/03/19 04:44:33;;;;;;;16.02;8.77;;;;;;;7.08;72.22;104181.94;6245811;22;20299;-61
2022/03/19 04:46:59;;;;;;;18.55;8.75;;;;;;;7.11;72.01;104176.91;6246072;22;20000;-61
2022/03/19 04:49:25;;;;;;;19.50;8.90;;;;;;;7.08;72.04;104172.31;6244567;23;20075;-61
2022/03/19 04:51:51;;;;;;;20.00;9.07;;;;;;;7.13;72.46;104170.06;6245914;22;20039;-61
2022/03/19 04:54:16;;;;;;;22.65;9.15;;;;;;;7.15;72.18;104172.03;6246034;22;20004;-61
2022/03/19 04:56:42;;;;;;;18.17;8.32;;;;;;;7.11;71.96;104169.00;6246147;23;20027;-62
2022/03/19 04:59:11;;;;;;;16.10;8.52;;;;;;;7.05;72.21;104169.44;6245501;22;20005;-61
2022/03/19 05:01:37;;;;;;;16.25;8.38;;;;;;;7.04;72.27;104172.88;6245945;22;20008;-61
2022/03/19 05:04:03;;;;;;;17.58;9.40;;;;;;;7.05;71.75;104179.06;6245846;22;20010;-61
2022/03/19 05:06:28;;;;;;;19.55;9.18;;;;;;;7.06;72.53;104175.63;6245871;22;20378;-61
2022/03/19 05:11:41;;;;;;;16.67;8.73;;;;;;;6.93;72.48;104179.91;6245586;23;20070;-61
2022/03/19 05:14:07;;;;;;;15.63;8.70;;;;;;;6.91;72.29;104183.22;6245893;22;20011;-62
2022/03/19 05:16:32;;;;;;;13.45;8.25;;;;;;;6.91;72.49;104181.53;6246183;22;20004;-61
2022/03/19 05:18:58;;;;;;;53.55;11.20;;;;;;;6.86;73.00;104185.50;6246205;22;20479;-61
2022/03/19 05:21:23;;;;;;;15.52;8.68;;;;;;;6.93;72.58;104185.16;6244234;23;20000;-62
2022/03/19 05:23:50;;;;;;;15.68;8.57;;;;;;;6.96;72.71;104184.50;6246865;22;20002;-62
2022/03/19 05:26:17;;;;;;;18.02;9.20;;;;;;;6.93;72.29;104185.16;6245632;22;20050;-61
2022/03/19 05:28:43;;;;;;;17.17;9.25;;;;;;;6.95;72.30;104195.81;6245738;22;20031;-62
2022/03/19 05:31:08;;;;;;;18.52;8.65;;;;;;;6.93;72.26;104192.13;6245692;22;20423;-61
2022/03/19 05:36:20;;;;;;;17.65;8.80;;;;;;;6.85;72.72;104194.19;6245590;23;20062;-62
2022/03/19 05:38:45;;;;;;;14.23;8.32;;;;;;;6.85;72.58;104193.25;6245166;22;20004;-62
2022/03/19 05:41:11;;;;;;;15.55;9.10;;;;;;;6.81;73.03;104186.84;6244908;22;20008;-62
2022/03/19 05:43:37;;;;;;;19.20;8.82;;;;;;;6.80;73.22;104191.97;6245228;22;20030;-61
2022/03/19 05:46:03;;;;;;;16.60;8.85;;;;;;;6.77;72.88;104198.81;6244269;22;20019;-61
2022/03/19 05:48:28;;;;;;;15.68;8.55;;;;;;;6.76;73.26;104196.97;6245079;22;20010;-61
2022/03/19 05:50:54;;;;;;;16.65;9.13;;;;;;;6.78;73.04;104191.84;6244620;22;20007;-62
2022/03/19 05:53:19;;;;;;;17.98;8.65;;;;;;;6.77;72.95;104197.91;6244929;22;20027;-61
2022/03/19 05:55:45;;;;;;;15.90;9.13;;;;;;;6.76;73.57;104196.97;6244847;22;20027;-61
2022/03/19 05:58:10;;;;;;;19.58;9.35;;;;;;;6.73;73.11;104203.72;6245176;22;20011;-62
2022/03/19 06:00:36;;;;;;;19.80;10.00;;;;;;;6.73;73.91;104198.47;6245163;22;20535;-62
2022/03/19 06:03:01;;;;;;;14.65;8.50;;;;;;;6.78;73.94;104199.75;6244977;23;20138;-61
2022/03/19 06:05:26;;;;;;;18.55;9.73;;;;;;;6.84;74.01;104201.94;6245071;22;20311;-62
2022/03/19 06:07:52;;;;;;;18.85;9.35;;;;;;;6.88;73.24;104204.00;6244717;22;20012;-62
2022/03/19 06:10:18;;;;;;;19.42;9.57;;;;;;;6.91;73.53;104210.44;6246722;22;20008;-61
2022/03/19 06:12:46;;;;;;;16.95;9.18;;;;;;;6.99;73.71;104205.78;6247542;22;20376;-61
2022/03/19 06:15:11;;;;;;;14.75;8.52;;;;;;;7.05;72.93;104197.47;6247215;22;20275;-61
2022/03/19 06:17:37;;;;;;;16.98;8.93;;;;;;;7.13;73.33;104207.78;6246561;22;20004;-62
2022/03/19 06:20:02;;;;;;;16.02;9.43;;;;;;;7.19;73.13;104208.25;6246542;22;20031;-61
2022/03/19 06:22:28;;;;;;;19.15;8.88;;;;;;;7.28;72.81;104209.00;6246414;22;20007;-62
2022/03/19 06:24:53;;;;;;;17.95;9.43;;;;;;;7.37;72.63;104211.44;6246695;22;20372;-61
2022/03/19 06:27:20;;;;;;;21.15;9.98;;;;;;;7.47;71.88;104208.72;6246755;22;20087;-62
2022/03/19 06:29:47;;;;;;;17.13;9.32;;;;;;;7.57;71.65;104204.16;6246539;22;20070;-61
2022/03/19 06:32:14;;;;;;;16.45;8.95;;;;;;;7.66;71.15;104203.13;6246620;22;20426;-61
2022/03/19 06:34:40;;;;;;;17.23;9.18;;;;;;;7.80;70.63;104206.84;6244956;23;20000;-61
2022/03/19 06:37:21;;;;;;;20.55;9.30;;;;;;;7.94;71.60;104211.41;6246510;22;20306;-62
2022/03/19 06:39:53;;;;;;;18.27;9.68;;;;;;;8.08;70.41;104203.63;6246683;22;20004;-62
2022/03/19 06:42:19;;;;;;;19.83;9.77;;;;;;;8.23;69.83;104208.34;6246591;22;20448;-63
2022/03/19 06:44:44;;;;;;;18.27;10.10;;;;;;;8.33;68.87;104220.47;6246190;22;20000;-62
2022/03/19 06:47:10;;;;;;;19.05;9.73;;;;;;;8.47;69.61;104218.88;6246517;23;19996;-62
2022/03/19 06:49:35;;;;;;;15.45;8.75;;;;;;;8.60;68.31;104216.34;6246669;22;20004;-62
2022/03/19 06:52:01;;;;;;;18.65;9.07;;;;;;;8.72;68.12;104216.31;6246179;22;20004;-62
2022/03/19 06:54:26;;;;;;;20.67;9.68;;;;;;;8.86;68.02;104218.22;6246528;22;20000;-61
2022/03/19 06:56:52;;;;;;;19.67;8.90;;;;;;;9.05;68.09;104209.00;6246468;22;20015;-62
2022/03/19 06:59:18;;;;;;;19.00;8.63;;;;;;;9.12;66.79;104219.16;6246450;22;20035;-62
2022/03/19 07:01:43;;;;;;;19.17;8.90;;;;;;;9.26;66.55;104200.88;6246102;22;20007;-61
2022/03/19 07:04:09;;;;;;;18.10;8.95;;;;;;;9.32;66.20;104196.81;6247212;22;20007;-61
2022/03/19 07:06:34;;;;;;;19.70;9.00;;;;;;;9.58;66.95;104202.19;6246063;22;20004;-62
2022/03/19 07:09:00;;;;;;;17.15;9.43;;;;;;;9.69;65.39;104200.28;6246270;22;20052;-61
2022/03/19 07:11:26;;;;;;;18.55;8.63;;;;;;;9.77;64.63;104204.38;6246402;22;20004;-61
2022/03/19 07:13:51;;;;;;;14.48;8.80;;;;;;;9.80;64.04;104199.28;6246280;22;20011;-61
2022/03/19 07:16:17;;;;;;;17.48;8.63;;;;;;;9.88;64.71;104197.16;6246214;22;20023;-62
2022/03/19 07:18:42;;;;;;;16.13;8.82;;;;;;;10.02;63.85;104204.25;6246226;22;20004;-61
2022/03/19 07:21:09;;;;;;;17.70;9.07;;;;;;;10.24;63.25;104201.34;6245966;22;20010;-62
2022/03/19 07:23:35;;;;;;;20.38;9.45;;;;;;;10.36;62.74;104204.81;6246475;22;20005;-62
2022/03/19 07:26:01;;;;;;;16.73;8.65;;;;;;;10.53;62.74;104206.84;6246443;22;20004;-62
2022/03/19 07:28:27;;;;;;;15.98;8.52;;;;;;;10.73;62.33;104212.50;6246119;22;20418;-62
2022/03/19 07:30:53;;;;;;;14.25;8.60;;;;;;;10.96;61.41;104195.41;6246128;22;20004;-62
2022/03/19 07:33:18;;;;;;;16.80;8.90;;;;;;;11.21;61.49;104201.41;6245917;22;20004;-61
2022/03/19 07:35:44;;;;;;;14.65;8.27;;;;;;;11.35;60.20;104201.34;6245846;22;20060;-63
2022/03/19 07:38:11;;;;;;;15.65;7.95;;;;;;;11.46;60.36;104202.94;6246320;22;20073;-61
2022/03/19 07:43:23;;;;;;;17.75;7.90;;;;;;;11.86;58.46;104192.09;6246010;23;20541;-61
2022/03/19 07:45:49;;;;;;;16.17;8.05;;;;;;;12.05;58.26;104196.78;6245185;22;20012;-62
2022/03/19 07:48:16;;;;;;;16.10;7.78;;;;;;;12.17;57.69;104205.44;6246131;22;20005;-61
2022/03/19 07:50:41;;;;;;;16.20;7.57;;;;;;;12.12;57.11;104196.28;6245570;22;20008;-61
2022/03/19 07:53:07;;;;;;;15.40;7.22;;;;;;;12.10;57.03;104195.28;6246303;22;20087;-62
2022/03/19 07:55:33;;;;;;;16.67;7.80;;;;;;;12.14;57.05;104186.69;6245634;22;20000;-61
2022/03/19 07:57:59;;;;;;;17.67;7.55;;;;;;;12.22;56.56;104188.06;6245734;22;20008;-62
2022/03/19 08:00:24;;;;;;;19.50;7.78;;;;;;;12.30;56.89;104194.72;6245885;22;20012;-62
2022/03/19 08:02:51;;;;;;;17.20;7.32;;;;;;;12.36;55.56;104187.09;6245598;22;20092;-62
2022/03/19 08:05:16;;;;;;;14.48;7.75;;;;;;;12.34;56.16;104179.91;6245600;22;20000;-62
2022/03/19 08:07:42;;;;;;;16.13;7.28;;;;;;;12.41;55.23;104184.69;6245617;22;20008;-62
2022/03/19 08:10:09;;;;;;;14.02;6.82;;;;;;;12.57;55.37;104183.84;6243839;23;20008;-61
2022/03/19 08:12:36;;;;;;;14.88;7.38;;;;;;;12.73;53.89;104184.78;6245648;22;20378;-62
2022/03/19 08:15:03;;;;;;;17.55;6.90;;;;;;;12.78;53.68;104185.03;6245479;22;20014;-61
2022/03/19 08:17:28;;;;;;;14.25;6.15;;;;;;;12.90;54.17;104180.41;6245388;22;20051;-62
2022/03/19 08:19:58;;;;;;;15.60;6.72;;;;;;;12.97;53.46;104193.16;6245520;22;20004;-62
2022/03/19 08:22:27;;;;;;;13.60;6.13;;;;;;;12.99;52.38;104194.16;6244977;22;20043;-62
2022/03/19 08:24:53;;;;;;;15.13;6.25;;;;;;;13.03;52.05;104187.28;6245485;22;20008;-61
2022/03/19 08:27:23;;;;;;;15.93;6.28;;;;;;;13.21;52.08;104188.25;6245275;22;20000;-63
2022/03/19 08:29:48;;;;;;;15.57;6.70;;;;;;;13.31;50.91;104187.03;6245316;22;20031;-62
2022/03/19 08:32:14;;;;;;;13.60;6.20;;;;;;;13.33;50.99;104185.41;6245274;22;20071;-62
2022/03/19 08:34:39;;;;;;;17.13;6.18;;;;;;;13.48;50.27;104186.19;6245203;22;20010;-62
2022/03/19 08:37:05;;;;;;;12.05;6.15;;;;;;;13.52;50.62;104187.25;6245365;22;20065;-61
2022/03/19 08:42:15;;;;;;;16.75;6.30;;;;;;;14.03;49.20;104182.78;6245343;23;20070;-62
2022/03/19 08:44:41;;;;;;;18.23;6.43;;;;;;;14.11;48.09;104186.72;6244797;22;20004;-62
2022/03/19 08:47:06;;;;;;;14.60;6.45;;;;;;;14.15;48.50;104193.13;6245395;22;20079;-61
2022/03/19 08:49:32;;;;;;;13.68;6.70;;;;;;;14.28;47.42;104184.91;6245192;22;20012;-62
2022/03/19 08:51:57;;;;;;;14.98;6.25;;;;;;;14.28;47.42;104171.59;6245222;22;20015;-62
2022/03/19 08:54:23;;;;;;;14.18;6.18;;;;;;;14.33;47.76;104179.81;6245165;22;20004;-62
2022/03/19 08:56:51;;;;;;;21.45;6.53;;;;;;;14.62;46.78;104176.84;6245240;22;20122;-62
2022/03/19 08:59:19;;;;;;;13.45;6.00;;;;;;;14.85;46.04;104179.66;6245648;22;20179;-62
2022/03/19 09:01:45;;;;;;;12.35;6.15;;;;;;;15.04;45.48;104185.00;6245088;22;20004;-62
2022/03/19 09:04:11;;;;;;;16.67;6.15;;;;;;;15.16;46.00;104173.97;6245154;22;20011;-62
2022/03/19 09:06:38;;;;;;;16.70;6.40;;;;;;;15.35;44.87;104173.06;6245073;22;20079;-62
2022/03/19 09:09:03;;;;;;;15.10;6.25;;;;;;;15.56;44.71;104165.09;6245175;22;20012;-62
2022/03/19 09:11:31;;;;;;;14.52;6.45;;;;;;;15.81;43.98;104173.34;6244906;22;20008;-62
2022/03/19 09:13:57;;;;;;;13.75;6.20;;;;;;;15.83;43.55;104165.38;6245648;22;20000;-61
2022/03/19 09:16:23;;;;;;;14.73;5.88;;;;;;;15.86;42.93;104165.53;6244920;22;20057;-61
2022/03/19 09:18:50;;;;;;;12.40;5.85;;;;;;;15.89;43.25;104169.25;6244963;22;20000;-62
2022/03/19 09:21:15;;;;;;;12.35;6.30;;;;;;;15.76;42.75;104165.16;6245057;22;20000;-62
2022/03/19 09:23:42;;;;;;;11.63;5.97;;;;;;;16.02;43.22;104162.66;6244980;22;20011;-62
2022/03/19 09:26:08;;;;;;;12.02;5.90;;;;;;;16.05;42.71;104167.19;6243557;23;20460;-62
2022/03/19 09:28:33;;;;;;;14.40;5.80;;;;;;;16.28;41.96;104158.38;6243354;23;20004;-62
2022/03/19 09:30:59;;;;;;;18.80;5.75;;;;;;;16.46;41.68;104151.09;6243453;23;20008;-62
2022/03/19 09:33:24;;;;;;;15.43;5.80;;;;;;;16.65;41.25;104168.72;6244987;22;20004;-63
2022/03/19 09:35:50;;;;;;;13.90;5.80;;;;;;;16.67;40.45;104171.47;6245476;22;20000;-62
2022/03/19 09:38:15;;;;;;;16.92;5.75;;;;;;;16.71;40.92;104157.41;6245336;22;20071;-62
2022/03/19 09:40:42;;;;;;;17.65;5.03;;;;;;;16.75;40.51;104148.69;6245141;22;20361;-62
2022/03/19 09:43:07;;;;;;;13.60;5.18;;;;;;;16.77;40.51;104142.53;6245065;22;20008;-62
2022/03/19 09:45:35;;;;;;;13.38;5.30;;;;;;;16.68;39.95;104144.81;6246622;22;20054;-62
2022/03/19 09:48:01;;;;;;;15.00;5.63;;;;;;;16.61;39.27;104133.84;6247176;22;20000;-62
2022/03/19 09:50:28;;;;;;;13.70;5.68;;;;;;;16.55;39.79;104136.28;6247715;22;20000;-62
2022/03/19 09:52:59;;;;;;;12.52;5.80;;;;;;;16.32;40.93;104136.31;6247801;22;20004;-62
2022/03/19 09:55:26;;;;;;;11.40;5.18;;;;;;;16.69;40.48;104125.25;6248791;22;20331;-62
2022/03/19 09:57:53;;;;;;;13.57;4.65;;;;;;;17.00;39.14;104118.41;6247819;22;20027;-62
2022/03/19 10:00:22;;;;;;;11.70;4.88;;;;;;;17.22;37.98;104129.06;6246921;22;20399;-62
2022/03/19 10:02:56;;;;;;;16.02;5.15;;;;;;;17.25;37.56;104123.78;6247117;22;20027;-62
2022/03/19 10:10:50;;;;;;;13.50;4.45;;;;;;;16.63;36.91;104098.34;6246702;23;20018;-62
2022/03/19 10:13:16;;;;;;;13.88;5.05;;;;;;;16.82;36.73;104109.75;6247152;22;20032;-63
2022/03/19 10:15:42;;;;;;;11.68;4.85;;;;;;;16.97;36.67;104103.22;6246657;22;20054;-62
2022/03/19 10:18:09;;;;;;;9.60;4.47;;;;;;;16.93;35.58;104090.59;6247174;22;20004;-62
2022/03/19 10:20:35;;;;;;;11.85;4.20;;;;;;;17.16;33.90;104095.84;6246966;22;20027;-62
2022/03/19 10:23:02;;;;;;;9.65;4.05;;;;;;;17.24;33.69;104086.34;6246704;22;20008;-62
2022/03/19 10:25:29;;;;;;;11.90;4.28;;;;;;;17.46;33.95;104083.53;6247185;22;20008;-62
2022/03/19 10:28:08;;;;;;;10.88;4.30;;;;;;;17.75;32.91;104071.19;6246659;22;20000;-62
2022/03/19 10:30:38;;;;;;;11.48;4.20;;;;;;;17.84;32.00;104069.66;6247015;22;20054;-62
2022/03/19 10:33:06;;;;;;;10.77;4.15;;;;;;;17.75;30.30;104072.94;6246594;22;20013;-63
2022/03/19 10:35:34;;;;;;;11.65;4.10;;;;;;;17.64;30.10;104068.97;6246744;22;20034;-63
2022/03/19 10:38:19;;;;;;;10.70;3.83;;;;;;;17.91;30.77;104069.00;6246617;22;20012;-62
2022/03/19 10:40:47;;;;;;;10.68;4.40;;;;;;;17.88;30.28;104067.13;6246822;22;20008;-63
2022/03/19 10:43:16;;;;;;;10.98;4.32;;;;;;;18.09;30.93;104061.53;6246520;22;20107;-63
2022/03/19 10:45:53;;;;;;;10.32;4.05;;;;;;;18.16;30.41;104051.97;6246497;22;20009;-63
2022/03/19 10:48:25;;;;;;;8.52;3.72;;;;;;;18.25;30.10;104045.09;6247175;22;20007;-62
2022/03/19 10:50:52;;;;;;;9.70;3.97;;;;;;;18.54;28.62;104037.00;6247226;22;20028;-62
2022/03/19 10:53:19;;;;;;;8.82;3.60;;;;;;;18.66;26.95;104040.03;6246484;22;20283;-63
2022/03/19 10:55:45;;;;;;;8.63;3.53;;;;;;;18.58;25.84;104035.31;6244119;23;20091;-62
2022/03/19 10:58:11;;;;;;;6.82;3.38;;;;;;;18.51;24.34;104027.13;6246262;23;20079;-63
2022/03/19 11:00:37;;;;;;;7.80;3.42;;;;;;;18.44;24.76;104035.81;6246519;22;20061;-63
2022/03/19 11:03:20;;;;;;;11.02;3.28;;;;;;;18.35;25.01;104030.22;6246864;22;20008;-63
2022/03/19 11:05:46;;;;;;;9.60;3.28;;;;;;;18.14;25.03;104017.09;6246014;22;20011;-63
2022/03/19 11:08:13;;;;;;;10.85;3.42;;;;;;;18.20;24.81;104019.03;6246256;22;20008;-62
2022/03/19 11:10:40;;;;;;;6.75;3.28;;;;;;;18.35;23.62;104021.28;6246111;22;20062;-62
2022/03/19 11:13:12;;;;;;;10.20;3.60;;;;;;;18.28;23.14;104014.81;6246445;22;20004;-63
2022/03/19 11:15:39;;;;;;;7.97;3.40;;;;;;;18.21;23.79;104003.03;6246221;22;20004;-62
2022/03/19 11:18:07;;;;;;;7.82;3.50;;;;;;;18.11;24.14;104002.69;6246138;22;20038;-63
2022/03/19 11:20:33;;;;;;;11.00;3.20;;;;;;;18.05;24.04;104002.53;6246020;22;20011;-62
2022/03/19 11:23:04;;;;;;;10.75;3.42;;;;;;;18.37;23.63;104000.78;6246250;22;20082;-62
2022/03/19 11:25:37;;;;;;;7.20;2.80;;;;;;;18.63;21.95;103989.06;6246380;22;20486;-63
2022/03/19 11:28:10;;;;;;;7.90;3.10;;;;;;;18.83;20.25;103994.06;6246585;22;20008;-63
2022/03/19 11:30:40;;;;;;;7.60;2.90;;;;;;;18.83;20.19;103981.59;6246113;22;20378;-62
2022/03/19 11:33:18;;;;;;;9.77;3.20;;;;;;;18.83;20.52;103972.63;6246323;22;20004;-62
2022/03/19 11:36:07;;;;;;;8.70;3.00;;;;;;;18.77;20.29;103984.13;6246135;22;20011;-62
2022/03/19 11:38:40;;;;;;;6.82;3.00;;;;;;;18.53;19.68;103973.59;6153396;23;20013;-62
2022/03/19 11:41:25;;;;;;;6.22;2.88;;;;;;;18.49;20.22;103971.69;6153190;23;20014;-62